Latest Weather Observations for Camden

IDN60901

Issued at 11:25 pm EDT Thursday 23 October 2014 (issued every 10 minutes, with the page automatically refreshed every 10 minutes)

About weather observations | Map of Sydney area stations | Latest observations for Sydney area | Other Formats
Station Details ID: 068192 Name: CAMDEN AIRPORT AWS Lat: -34.04 Lon: 150.69 Height: 73.9 m
Data from the previous 72 hours. | See also: Recent months at Camden
Date/Time
EDT
Tmp

°C
App
Tmp
°C
Dew
Point
°C
Rel
Hum
%
Delta-T

°C
Wind Press
QNH
hPa
Press
MSL
hPa
Rain
since
9 am
mm
Dir
 
Spd
km/h
Gust
km/h
Spd
kts
Gust
kts
23/11:00pm 15.9 16.7 12.6 81 1.8 E 0 0 0 0 1020.7 1020.6 -
23/10:30pm 17.3 17.9 13.0 76 2.4 N 2 6 1 3 1020.8 1020.7 -
23/10:00pm 17.7 17.8 13.8 78 2.2 N 6 7 3 4 1020.5 1020.4 -
23/09:30pm 19.0 18.7 12.7 67 3.5 SSE 6 9 3 5 1020.2 1020.1 -
23/09:00pm 19.6 19.5 13.3 67 3.6 SSE 6 9 3 5 1019.7 1019.6 0.0
23/08:30pm 20.2 19.6 13.4 65 3.9 E 9 15 5 8 1019.1 1019.0 -
23/08:00pm 20.9 20.4 13.8 64 4.1 E 9 11 5 6 1018.6 1018.5 -
23/07:30pm 21.2 22.4 14.8 67 3.8 N 2 7 1 4 1018.5 1018.4 -
23/07:00pm 22.3 22.9 15.4 65 4.1 ENE 6 9 3 5 1018.1 1017.9 -
23/06:30pm 23.6 23.0 13.5 53 5.9 SSE 9 13 5 7 1017.9 1017.7 -
23/06:00pm 24.7 23.0 12.6 47 7.0 ESE 13 19 7 10 1017.2 1017.0 -
23/05:30pm 25.4 24.5 12.6 45 7.4 E 9 15 5 8 1017.3 1017.1 -
23/05:00pm 26.3 24.5 12.0 41 8.2 E 13 19 7 10 1016.6 1016.4 -
23/04:30pm 28.0 24.8 11.1 35 9.7 ENE 19 24 10 13 1016.0 1015.8 -
23/04:00pm 28.5 24.8 10.2 32 10.3 E 20 28 11 15 1015.5 1015.3 -
23/03:30pm 30.5 26.9 10.5 29 11.5 ESE 20 32 11 17 1015.1 1015.0 -
23/03:00pm 31.9 30.7 12.7 31 11.4 ESE 11 22 6 12 1014.8 1014.7 -
23/02:30pm 31.2 28.9 13.0 33 10.9 E 17 26 9 14 1014.9 1014.8 0.0
23/02:00pm 31.9 31.2 13.2 32 11.2 S 9 15 5 8 1015.3 1015.2 0.0
23/01:30pm 31.3 30.0 11.1 29 11.7 SE 9 15 5 8 1015.9 1015.7 0.0
23/01:00pm 30.1 29.6 12.5 34 10.4 NNE 7 13 4 7 1016.3 1016.1 0.0
23/12:30pm 29.5 29.7 14.1 39 9.3 E 6 11 3 6 1016.7 1016.5 0.0
23/12:00pm 28.5 29.7 15.8 46 7.8 ESE 4 11 2 6 1016.9 1016.7 0.0
23/11:30am 27.1 27.5 14.8 47 7.4 NNE 6 13 3 7 1017.3 1017.1 0.0
23/11:00am 25.8 26.6 14.9 51 6.6 W 4 9 2 5 1017.6 1017.4 0.0
23/10:30am 23.9 24.3 13.7 53 6.0 ENE 4 9 2 5 1017.9 1017.7 0.0
23/10:00am 22.8 23.1 14.4 59 4.9 ESE 6 11 3 6 1018.0 1017.8 0.0
23/09:30am 21.0 21.6 13.2 61 4.5 N 2 7 1 4 1018.2 1018.0 0.0
23/09:00am 18.9 18.9 13.7 72 3.0 NE 6 7 3 4 1018.2 1018.0 0.0
23/08:30am 16.2 16.7 12.7 80 1.9 NNW 2 6 1 3 1018.2 1018.0 0.0
23/08:00am 15.0 15.9 12.9 87 1.2 CALM 0 0 0 0 1018.4 1018.3 0.0
23/07:30am 13.3 14.1 12.7 96 0.3 CALM 0 0 0 0 1018.5 1018.4 0.0
23/07:00am 11.5 11.9 11.3 99 0.1 CALM 0 0 0 0 1018.5 1018.4 0.0
23/06:30am 10.2 10.3 10.0 99 0.1 CALM 0 2 0 1 1018.2 1018.0 0.0
23/06:10am 10.2 9.1 10.0 99 0.1 S 6 9 3 5 1018.1 1017.9 0.0
23/06:00am 10.0 10.0 9.9 99 0.1 CALM 0 0 0 0 1017.9 1017.7 0.0
23/05:55am 10.4 10.5 10.2 99 0.1 CALM 0 0 0 0 1017.9 1017.7 0.0
23/05:49am 10.3 10.4 10.1 99 0.1 S 0 0 0 0 1017.8 1017.6 0.0
23/05:38am 10.5 10.6 10.3 99 0.1 CALM 0 0 0 0 1017.5 1017.3 0.0
23/05:30am 10.5 10.6 10.2 98 0.2 CALM 0 0 0 0 1017.6 1017.4 0.0
23/05:11am 10.5 10.6 10.0 97 0.3 CALM 0 0 0 0 1017.9 1017.7 0.0
23/05:07am 10.5 10.6 10.0 97 0.3 CALM 0 0 0 0 1017.9 1017.7 0.0
23/05:01am 10.6 10.7 10.3 98 0.2 CALM 0 0 0 0 1017.9 1017.7 0.0
23/05:00am 10.6 10.7 10.3 98 0.2 CALM 0 0 0 0 1017.9 1017.7 0.0
23/04:32am 10.7 10.8 10.2 97 0.3 CALM 0 0 0 0 1017.9 1017.7 0.0
23/04:30am 10.8 10.9 10.3 97 0.3 CALM 0 0 0 0 1017.9 1017.7 0.0
23/04:21am 11.0 11.2 10.7 98 0.2 CALM 0 0 0 0 1017.9 1017.7 0.0
23/04:15am 11.2 11.5 10.9 98 0.2 CALM 0 0 0 0 1017.9 1017.7 0.0
23/04:01am 11.1 11.3 10.6 97 0.3 CALM 0 0 0 0 1017.9 1017.7 0.0
23/04:00am 11.1 11.3 10.6 97 0.3 CALM 0 0 0 0 1017.9 1017.7 0.0
23/03:49am 10.9 11.1 10.4 97 0.3 CALM 0 0 0 0 1017.9 1017.7 0.0
23/03:30am 11.2 11.4 10.7 97 0.3 CALM 0 0 0 0 1018.1 1017.9 0.0
23/03:29am 11.2 11.4 10.7 97 0.3 CALM 0 0 0 0 1018.1 1017.9 0.0
23/03:02am 11.6 12.0 11.1 97 0.3 CALM 0 0 0 0 1018.3 1018.2 0.0
23/03:00am 11.5 11.8 11.0 97 0.3 CALM 0 0 0 0 1018.3 1018.2 0.0
23/02:30am 11.5 11.7 10.7 95 0.4 CALM 0 0 0 0 1018.6 1018.5 0.0
23/02:12am 11.7 12.0 10.9 95 0.4 CALM 0 0 0 0 1018.8 1018.7 0.0
23/02:05am 11.8 12.1 10.9 94 0.5 CALM 0 0 0 0 1018.9 1018.8 0.0
23/02:00am 11.8 12.1 10.9 94 0.5 CALM 0 0 0 0 1019.0 1018.9 0.0
23/01:30am 12.1 12.5 11.2 94 0.5 CALM 0 0 0 0 1019.4 1019.3 0.0
23/01:00am 12.4 12.8 11.3 93 0.6 CALM 0 0 0 0 1019.7 1019.6 0.0
23/12:30am 12.5 12.8 10.9 90 0.8 CALM 0 0 0 0 1019.9 1019.8 0.0
23/12:00am 13.0 13.4 11.4 90 0.8 S 0 0 0 0 1020.1 1020.0 0.0
 
Date/Time
EDT
Tmp

°C
App
Tmp
°C
Dew
Point
°C
Rel
Hum
%
Delta-T

°C
Wind Press
QNH
hPa
Press
MSL
hPa
Rain
since
9 am
mm
Dir
 
Spd
km/h
Gust
km/h
Spd
kts
Gust
kts
22/11:30pm 13.0 13.4 11.2 89 1.0 CALM 0 0 0 0 1020.3 1020.2 0.0
22/11:00pm 13.8 13.2 11.7 87 1.1 S 6 7 3 4 1020.4 1020.3 0.0
22/10:30pm 14.3 13.5 11.6 84 1.5 S 7 9 4 5 1020.7 1020.6 0.0
22/10:00pm 15.0 15.5 11.6 80 1.8 CALM 0 0 0 0 1020.6 1020.5 0.0
22/09:30pm 15.6 16.2 11.8 78 2.1 CALM 0 0 0 0 1020.5 1020.4 0.0
22/09:00pm 17.0 16.8 11.7 71 2.9 ENE 4 6 2 3 1020.4 1020.3 0.0
22/08:30pm 17.4 16.7 11.9 70 3.0 ENE 7 11 4 6 1020.1 1020.0 0.0
22/08:00pm 18.2 18.3 11.5 65 3.7 NE 2 9 1 5 1020.0 1019.9 0.0
22/07:30pm 19.0 17.1 11.8 63 4.0 ENE 13 20 7 11 1019.6 1019.5 0.0
22/07:00pm 20.1 17.4 11.6 58 4.7 ENE 17 22 9 12 1019.4 1019.3 0.0
22/06:30pm 21.3 18.7 11.9 55 5.3 ENE 17 26 9 14 1019.3 1019.2 0.0
22/06:00pm 22.3 19.5 11.4 50 6.1 ENE 17 26 9 14 1019.3 1019.2 0.0
22/05:30pm 24.2 21.4 10.1 41 7.8 NNE 15 24 8 13 1019.3 1019.2 0.0
22/05:00pm 24.6 21.2 10.5 41 7.8 NNE 19 24 10 13 1019.5 1019.4 0.0
22/04:30pm 24.3 21.6 10.2 41 7.8 NNE 15 24 8 13 1019.7 1019.6 0.0
22/04:00pm 24.1 21.3 10.0 41 7.7 NNE 15 24 8 13 1020.0 1019.9 0.0
22/03:30pm 24.4 21.6 9.9 40 8.0 N 15 24 8 13 1020.6 1020.5 0.0
22/03:00pm 23.6 20.7 9.6 41 7.6 NNE 15 22 8 12 1021.2 1021.1 0.0
22/02:30pm 23.4 20.2 9.8 42 7.4 NE 17 24 9 13 1021.6 1021.5 0.0
22/02:00pm 23.4 20.0 10.5 44 7.1 NE 19 28 10 15 1022.3 1022.2 0.0
22/01:30pm 22.6 18.3 9.4 43 7.1 NNE 22 30 12 16 1023.0 1022.9 0.0
22/01:00pm 22.1 18.2 9.3 44 6.9 N 20 22 11 12 1023.6 1023.5 0.0
22/12:30pm 21.8 17.5 9.3 45 6.7 NE 22 32 12 17 1024.2 1024.1 0.0
22/12:00pm 20.6 15.0 8.6 46 6.3 NE 28 37 15 20 1024.9 1024.8 0.0
22/11:30am 21.2 16.5 9.1 46 6.5 NNE 24 33 13 18 1025.5 1025.4 0.0
22/11:00am 20.5 15.5 8.2 45 6.4 NE 24 28 13 15 1025.8 1025.7 0.0
22/10:30am 19.5 14.4 7.6 46 6.1 NNE 24 32 13 17 1026.3 1026.2 0.0
22/10:00am 18.9 14.3 8.0 49 5.6 N 22 30 12 16 1026.6 1026.5 0.0
22/09:30am 18.3 14.5 7.4 49 5.5 N 17 24 9 13 1026.8 1026.7 0.0
22/09:00am 17.2 13.3 7.0 51 5.1 N 17 24 9 13 1027.0 1026.9 0.0
22/08:30am 16.4 13.9 8.4 59 4.1 N 11 20 6 11 1027.3 1027.2 0.0
22/08:00am 15.3 14.2 10.5 73 2.5 NNW 7 11 4 6 1027.4 1027.3 0.0
22/07:30am 13.9 14.1 10.5 80 1.8 CALM 0 0 0 0 1027.4 1027.3 0.0
22/07:00am 13.2 13.6 11.4 89 1.0 CALM 0 0 0 0 1027.4 1027.3 0.0
22/06:30am 12.6 12.9 10.8 89 0.9 CALM 0 0 0 0 1027.4 1027.3 0.0
22/06:00am 12.8 13.0 10.5 86 1.2 CALM 0 0 0 0 1027.3 1027.2 0.0
22/05:30am 12.7 12.8 10.2 85 1.3 CALM 0 0 0 0 1027.3 1027.2 0.0
22/05:00am 12.9 13.1 10.6 86 1.2 CALM 0 0 0 0 1027.3 1027.2 0.0
22/04:30am 13.1 13.3 10.5 84 1.4 CALM 0 0 0 0 1027.4 1027.3 0.0
22/04:00am 13.0 13.2 10.7 86 1.2 CALM 0 0 0 0 1027.7 1027.6 0.0
22/03:30am 13.2 13.1 9.5 78 1.9 CALM 0 0 0 0 1028.0 1027.9 0.0
22/03:00am 13.4 13.5 10.2 81 1.7 CALM 0 0 0 0 1028.3 1028.2 0.0
22/02:30am 13.6 12.4 9.6 77 2.1 NE 6 7 3 4 1028.7 1028.6 0.0
22/02:00am 13.6 13.6 9.8 78 1.9 CALM 0 0 0 0 1029.0 1028.9 0.0
22/01:30am 13.7 13.8 10.1 79 1.9 CALM 0 0 0 0 1029.5 1029.3 0.0
22/01:00am 14.1 14.3 10.5 79 1.9 CALM 0 0 0 0 1030.1 1030.0 0.0
22/12:30am 14.2 14.3 10.0 76 2.2 CALM 0 4 0 2 1030.6 1030.5 0.0
22/12:00am 14.3 13.0 9.9 75 2.3 NNW 7 7 4 4 1030.9 1030.8 0.0
 
Date/Time
EDT
Tmp

°C
App
Tmp
°C
Dew
Point
°C
Rel
Hum
%
Delta-T

°C
Wind Press
QNH
hPa
Press
MSL
hPa
Rain
since
9 am
mm
Dir
 
Spd
km/h
Gust
km/h
Spd
kts
Gust
kts
21/11:30pm 14.5 13.1 9.7 73 2.5 N 7 9 4 5 1031.1 1031.0 0.0
21/11:00pm 14.8 13.1 9.8 72 2.6 N 9 11 5 6 1031.2 1031.1 0.0
21/10:30pm 14.5 13.1 9.7 73 2.5 N 7 9 4 5 1031.4 1031.3 0.0
21/10:00pm 15.0 13.7 10.0 72 2.6 N 7 9 4 5 1031.4 1031.3 0.0
21/09:30pm 15.0 13.6 9.4 69 2.9 NE 7 9 4 5 1031.3 1031.2 0.0
21/09:00pm 15.3 13.6 8.5 64 3.4 ENE 7 11 4 6 1031.2 1031.1 0.0
21/08:30pm 15.5 13.7 8.0 61 3.8 ENE 7 11 4 6 1031.0 1030.9 0.0
21/08:00pm 15.5 13.3 8.0 61 3.7 ENE 9 11 5 6 1030.6 1030.5 0.0
21/07:30pm 15.6 13.4 7.9 60 3.9 ENE 9 15 5 8 1030.4 1030.3 0.0
21/07:00pm 15.8 13.6 7.8 59 4.0 ENE 9 13 5 7 1030.3 1030.2 0.0
21/06:30pm 16.3 13.6 7.5 56 4.4 ENE 11 17 6 9 1030.1 1030.0 0.0
21/06:00pm 16.5 13.8 7.4 55 4.5 ENE 11 15 6 8 1030.1 1030.0 0.0
21/05:30pm 16.9 14.9 7.3 53 4.8 E 7 11 4 6 1030.0 1029.9 0.0
21/05:00pm 17.0 14.3 7.4 53 4.8 NE 11 15 6 8 1030.1 1030.0 0.0
21/04:30pm 17.0 13.9 7.4 53 4.8 NE 13 17 7 9 1030.0 1029.9 0.0
21/04:00pm 17.2 14.1 7.3 52 4.9 ENE 13 17 7 9 1030.1 1030.0 0.0
21/03:30pm 17.2 13.3 7.3 52 5.0 NE 17 20 9 11 1030.4 1030.3 0.0
21/03:00pm 17.3 14.9 7.1 51 5.1 ENE 9 19 5 10 1030.7 1030.6 0.0
21/02:30pm 17.4 14.2 6.9 50 5.2 NE 13 20 7 11 1031.0 1030.9 0.0
21/02:00pm 17.0 14.3 7.4 53 4.8 ENE 11 17 6 9 1031.5 1031.4 0.0
21/01:30pm 16.8 14.1 7.2 53 4.8 ENE 11 17 6 9 1031.9 1031.8 0.0
21/01:00pm 16.9 14.6 7.5 54 4.7 E 9 13 5 7 1032.2 1032.1 0.0
21/12:30pm 16.7 14.1 7.6 55 4.6 E 11 15 6 8 1032.4 1032.3 0.0
21/12:00pm 16.6 14.0 7.8 56 4.4 E 11 17 6 9 1032.7 1032.6 0.0
21/11:30am 16.6 14.1 8.3 58 4.2 ENE 11 19 6 10 1032.9 1032.8 0.0
21/11:00am 16.8 15.1 7.7 55 4.6 E 6 13 3 7 1033.0 1032.9 0.0
21/10:30am 17.0 14.7 8.9 59 4.2 E 11 20 6 11 1033.1 1033.0 0.0
21/10:00am 16.4 15.1 9.8 65 3.4 SSE 7 11 4 6 1033.2 1033.1 0.0
21/09:30am 15.7 14.2 10.7 72 2.7 S 9 13 5 7 1033.1 1033.0 0.0
21/09:00am 14.9 13.4 10.5 75 2.3 S 9 13 5 7 1033.0 1032.9 1.2
21/08:30am 14.3 13.3 11.1 81 1.7 SSW 7 11 4 6 1032.8 1032.7 1.2
21/08:00am 13.9 13.3 11.6 86 1.2 SW 6 9 3 5 1032.6 1032.5 1.2
21/07:30am 13.3 13.8 11.5 89 1.0 CALM 0 0 0 0 1032.2 1032.1 1.2
21/07:00am 13.0 13.4 11.4 90 0.8 CALM 0 0 0 0 1031.9 1031.8 1.2
21/06:30am 12.8 12.9 11.4 91 0.7 SW 2 6 1 3 1031.7 1031.6 1.2
21/06:00am 12.8 11.9 11.5 92 0.7 SSW 7 9 4 5 1031.4 1031.3 1.2
21/05:30am 13.0 13.7 12.2 95 0.4 CALM 0 0 0 0 1031.2 1031.1 1.2
21/05:00am 12.9 13.2 12.1 95 0.4 SSW 2 6 1 3 1031.3 1031.2 1.2
21/04:30am 12.9 12.2 12.1 95 0.4 SSW 7 9 4 5 1031.2 1031.1 1.2
21/04:00am 13.1 13.9 12.5 96 0.3 CALM 0 7 0 4 1031.4 1031.3 1.2
21/03:30am 13.0 13.3 12.2 95 0.4 SE 2 6 1 3 1031.5 1031.4 1.2
21/03:02am 13.0 13.3 12.2 95 0.4 SE 2 6 1 3 1031.6 1031.5 1.2
21/03:00am 13.0 13.3 12.2 95 0.4 SE 2 7 1 4 1031.6 1031.5 1.2
21/02:42am 13.0 12.4 12.2 95 0.4 E 7 11 4 6 1031.7 1031.6 1.2
21/02:30am 13.2 12.2 12.3 94 0.5 NE 9 13 5 7 1031.7 1031.6 1.0
21/02:23am 13.2 12.6 12.3 94 0.5 NE 7 9 4 5 1031.7 1031.6 1.0
21/02:11am 13.3 13.3 12.4 94 0.5 ENE 4 7 2 4 1031.7 1031.6 0.8
21/02:00am 13.5 13.6 12.7 95 0.4 E 4 9 2 5 1031.7 1031.6 0.8
21/01:45am 13.2 13.6 12.6 96 0.3 WNW 2 7 1 4 1031.8 1031.7 0.8
21/01:32am 13.3 13.0 12.8 97 0.3 NNW 6 9 3 5 1031.8 1031.7 0.8
21/01:30am 13.3 13.4 12.7 96 0.3 NNW 4 9 2 5 1031.8 1031.7 0.8
21/01:26am 13.4 13.9 12.8 96 0.3 NNW 2 9 1 5 1031.9 1031.8 0.6
21/01:09am 13.1 13.8 12.3 95 0.4 CALM 0 0 0 0 1031.9 1031.8 0.6
21/01:00am 13.1 13.4 12.3 95 0.4 WNW 2 6 1 3 1031.9 1031.8 0.4
21/12:40am 13.4 12.9 12.6 95 0.4 NW 7 9 4 5 1031.9 1031.8 0.4
21/12:30am 13.3 12.8 12.5 95 0.4 NW 7 9 4 5 1032.1 1032.0 0.4
21/12:06am 13.5 13.1 12.4 93 0.6 N 6 7 3 4 1032.3 1032.2 0.0
21/12:00am 13.3 12.7 12.2 93 0.6 N 7 7 4 4 1032.3 1032.2 0.0
 
Date/Time
EDT
Tmp

°C
App
Tmp
°C
Dew
Point
°C
Rel
Hum
%
Delta-T

°C
Wind Press
QNH
hPa
Press
MSL
hPa
Rain
since
9 am
mm
Dir
 
Spd
km/h
Gust
km/h
Spd
kts
Gust
kts
20/11:30pm 13.8 13.1 11.3 85 1.3 W 6 7 3 4 1032.4 1032.3 0.0

Latest Capital City Observations: Canberra | Sydney | Melbourne | Brisbane | Adelaide | Perth | Hobart | Darwin

Other Formats:

Comma delimited format used in spreadsheet applications
http://www.bom.gov.au/fwo/IDN60901/IDN60901.94755.axf

JavaScript Object Notation format (JSON) in row-major order
http://www.bom.gov.au/fwo/IDN60901/IDN60901.94755.json